X  Lukk Metar værinformasjon om luftfart        LEGR Granada
Temperatur
9°C Temperatur
8°C Duggpunkt
94% Luftfuktighet



Vind
2 KM/T
1 MPT
0 M/S
1 KNP



170°
S
Nåværende forhold

Mostly Clear Mostly Klart
Trykk 1021 (hPa) - 30.14 (inHg)
Sikt 7 (mil) - 11 (km)
Flyplass
Flyplass-kode LEGR

Plassering: Granada
Avstand: 56 (km)

Metar:
METAR LEGR 271900Z 17001KT CAVOK 09/08 Q1020

Tid: 27-02-2021 20:00 CET